sensor_id;sensor_type;location;lat;lon;timestamp;P1;durP1;ratioP1;P2;durP2;ratioP2
23747;SDS011;12054;53.662;10.126;2022-07-05T00:00:56;2.08;;;1.60;;
23747;SDS011;12054;53.662;10.126;2022-07-05T00:03:22;3.28;;;1.50;;
23747;SDS011;12054;53.662;10.126;2022-07-05T00:05:48;3.42;;;1.73;;
23747;SDS011;12054;53.662;10.126;2022-07-05T00:08:14;3.50;;;1.80;;
23747;SDS011;12054;53.662;10.126;2022-07-05T00:10:39;2.35;;;1.60;;
23747;SDS011;12054;53.662;10.126;2022-07-05T00:13:05;2.53;;;1.65;;
23747;SDS011;12054;53.662;10.126;2022-07-05T00:15:31;2.63;;;1.60;;
23747;SDS011;12054;53.662;10.126;2022-07-05T00:17:57;3.28;;;1.83;;
23747;SDS011;12054;53.662;10.126;2022-07-05T00:20:23;1.75;;;1.52;;
23747;SDS011;12054;53.662;10.126;2022-07-05T00:22:48;3.72;;;1.90;;
23747;SDS011;12054;53.662;10.126;2022-07-05T00:25:14;1.70;;;1.58;;
23747;SDS011;12054;53.662;10.126;2022-07-05T00:27:40;3.65;;;1.70;;
23747;SDS011;12054;53.662;10.126;2022-07-05T00:30:06;4.10;;;1.88;;
23747;SDS011;12054;53.662;10.126;2022-07-05T00:32:32;3.38;;;1.88;;
23747;SDS011;12054;53.662;10.126;2022-07-05T00:34:58;3.83;;;1.90;;
23747;SDS011;12054;53.662;10.126;2022-07-05T00:37:24;1.90;;;1.45;;
23747;SDS011;12054;53.662;10.126;2022-07-05T00:39:49;4.00;;;1.90;;
23747;SDS011;12054;53.662;10.126;2022-07-05T00:42:15;3.35;;;2.15;;
23747;SDS011;12054;53.662;10.126;2022-07-05T00:44:41;2.42;;;1.50;;
23747;SDS011;12054;53.662;10.126;2022-07-05T00:47:07;4.47;;;1.77;;
23747;SDS011;12054;53.662;10.126;2022-07-05T00:49:35;3.17;;;1.90;;
23747;SDS011;12054;53.662;10.126;2022-07-05T00:52:02;2.42;;;1.70;;
23747;SDS011;12054;53.662;10.126;2022-07-05T00:54:30;2.97;;;1.73;;
23747;SDS011;12054;53.662;10.126;2022-07-05T00:56:58;3.10;;;1.77;;
23747;SDS011;12054;53.662;10.126;2022-07-05T00:59:24;2.38;;;1.80;;
23747;SDS011;12054;53.662;10.126;2022-07-05T01:01:50;2.25;;;1.52;;
23747;SDS011;12054;53.662;10.126;2022-07-05T01:04:15;4.60;;;1.85;;
23747;SDS011;12054;53.662;10.126;2022-07-05T01:06:42;2.92;;;1.60;;
23747;SDS011;12054;53.662;10.126;2022-07-05T01:09:10;2.35;;;1.40;;
23747;SDS011;12054;53.662;10.126;2022-07-05T01:11:38;3.67;;;1.58;;
23747;SDS011;12054;53.662;10.126;2022-07-05T01:14:05;4.32;;;1.80;;
23747;SDS011;12054;53.662;10.126;2022-07-05T01:16:36;4.55;;;1.58;;
23747;SDS011;12054;53.662;10.126;2022-07-05T01:19:04;4.00;;;1.85;;
23747;SDS011;12054;53.662;10.126;2022-07-05T01:21:31;4.88;;;1.80;;
23747;SDS011;12054;53.662;10.126;2022-07-05T01:24:14;2.33;;;1.63;;
23747;SDS011;12054;53.662;10.126;2022-07-05T01:26:41;3.47;;;1.90;;
23747;SDS011;12054;53.662;10.126;2022-07-05T01:29:08;4.53;;;1.83;;
23747;SDS011;12054;53.662;10.126;2022-07-05T01:31:38;3.08;;;1.75;;
23747;SDS011;12054;53.662;10.126;2022-07-05T01:34:04;3.88;;;1.80;;
23747;SDS011;12054;53.662;10.126;2022-07-05T01:36:31;3.08;;;1.77;;
23747;SDS011;12054;53.662;10.126;2022-07-05T01:38:58;2.58;;;1.75;;
23747;SDS011;12054;53.662;10.126;2022-07-05T01:41:25;4.53;;;1.92;;
23747;SDS011;12054;53.662;10.126;2022-07-05T01:43:51;2.72;;;1.88;;
23747;SDS011;12054;53.662;10.126;2022-07-05T01:46:16;2.90;;;2.00;;
23747;SDS011;12054;53.662;10.126;2022-07-05T01:48:45;3.58;;;1.98;;
23747;SDS011;12054;53.662;10.126;2022-07-05T01:51:18;2.67;;;1.73;;
23747;SDS011;12054;53.662;10.126;2022-07-05T01:53:47;4.80;;;1.88;;
23747;SDS011;12054;53.662;10.126;2022-07-05T01:56:16;2.25;;;1.77;;
23747;SDS011;12054;53.662;10.126;2022-07-05T01:58:41;2.90;;;2.03;;
23747;SDS011;12054;53.662;10.126;2022-07-05T02:01:07;2.13;;;1.90;;
23747;SDS011;12054;53.662;10.126;2022-07-05T02:03:33;2.75;;;1.92;;
23747;SDS011;12054;53.662;10.126;2022-07-05T02:06:00;4.18;;;2.20;;
23747;SDS011;12054;53.662;10.126;2022-07-05T02:08:29;4.63;;;2.00;;
23747;SDS011;12054;53.662;10.126;2022-07-05T02:10:55;3.58;;;1.90;;
23747;SDS011;12054;53.662;10.126;2022-07-05T02:13:21;4.82;;;1.90;;
23747;SDS011;12054;53.662;10.126;2022-07-05T02:15:47;2.72;;;2.08;;
23747;SDS011;12054;53.662;10.126;2022-07-05T02:18:13;5.63;;;2.50;;
23747;SDS011;12054;53.662;10.126;2022-07-05T02:20:39;3.20;;;2.10;;
23747;SDS011;12054;53.662;10.126;2022-07-05T02:23:05;3.05;;;1.98;;
23747;SDS011;12054;53.662;10.126;2022-07-05T02:25:32;4.45;;;2.03;;
23747;SDS011;12054;53.662;10.126;2022-07-05T02:27:57;3.22;;;2.08;;
23747;SDS011;12054;53.662;10.126;2022-07-05T02:30:23;3.13;;;1.70;;
23747;SDS011;12054;53.662;10.126;2022-07-05T02:32:49;4.15;;;2.10;;
23747;SDS011;12054;53.662;10.126;2022-07-05T02:35:14;3.35;;;1.92;;
23747;SDS011;12054;53.662;10.126;2022-07-05T02:37:40;3.15;;;2.25;;
23747;SDS011;12054;53.662;10.126;2022-07-05T02:40:06;4.05;;;2.10;;
23747;SDS011;12054;53.662;10.126;2022-07-05T02:42:37;3.75;;;2.28;;
23747;SDS011;12054;53.662;10.126;2022-07-05T02:45:03;3.33;;;2.00;;
23747;SDS011;12054;53.662;10.126;2022-07-05T02:47:30;4.07;;;2.53;;
23747;SDS011;12054;53.662;10.126;2022-07-05T02:49:57;4.93;;;2.05;;
23747;SDS011;12054;53.662;10.126;2022-07-05T02:52:23;6.07;;;2.10;;
23747;SDS011;12054;53.662;10.126;2022-07-05T02:54:49;4.28;;;2.30;;
23747;SDS011;12054;53.662;10.126;2022-07-05T02:57:14;2.58;;;2.15;;
23747;SDS011;12054;53.662;10.126;2022-07-05T02:59:40;6.18;;;2.08;;
23747;SDS011;12054;53.662;10.126;2022-07-05T03:02:05;3.70;;;2.10;;
23747;SDS011;12054;53.662;10.126;2022-07-05T03:04:31;4.20;;;1.88;;
23747;SDS011;12054;53.662;10.126;2022-07-05T03:06:56;3.20;;;2.15;;
23747;SDS011;12054;53.662;10.126;2022-07-05T03:09:22;3.42;;;2.13;;
23747;SDS011;12054;53.662;10.126;2022-07-05T03:11:47;3.33;;;2.20;;
23747;SDS011;12054;53.662;10.126;2022-07-05T03:14:13;5.18;;;2.08;;
23747;SDS011;12054;53.662;10.126;2022-07-05T03:16:38;4.43;;;2.03;;
23747;SDS011;12054;53.662;10.126;2022-07-05T03:19:04;2.25;;;2.05;;
23747;SDS011;12054;53.662;10.126;2022-07-05T03:21:29;4.10;;;2.30;;
23747;SDS011;12054;53.662;10.126;2022-07-05T03:23:55;2.72;;;2.30;;
23747;SDS011;12054;53.662;10.126;2022-07-05T03:26:20;4.57;;;2.40;;
23747;SDS011;12054;53.662;10.126;2022-07-05T03:28:46;3.47;;;2.17;;
23747;SDS011;12054;53.662;10.126;2022-07-05T03:31:11;3.67;;;2.45;;
23747;SDS011;12054;53.662;10.126;2022-07-05T03:33:37;4.82;;;2.58;;
23747;SDS011;12054;53.662;10.126;2022-07-05T03:36:03;4.57;;;2.50;;
23747;SDS011;12054;53.662;10.126;2022-07-05T03:38:28;4.35;;;2.67;;
23747;SDS011;12054;53.662;10.126;2022-07-05T03:40:54;4.10;;;2.60;;
23747;SDS011;12054;53.662;10.126;2022-07-05T03:43:19;4.47;;;2.20;;
23747;SDS011;12054;53.662;10.126;2022-07-05T03:45:45;3.85;;;2.40;;
23747;SDS011;12054;53.662;10.126;2022-07-05T03:48:10;2.83;;;2.25;;
23747;SDS011;12054;53.662;10.126;2022-07-05T03:50:36;6.65;;;2.60;;
23747;SDS011;12054;53.662;10.126;2022-07-05T03:53:01;3.95;;;2.40;;
23747;SDS011;12054;53.662;10.126;2022-07-05T03:55:27;4.35;;;2.83;;
23747;SDS011;12054;53.662;10.126;2022-07-05T03:57:52;3.03;;;2.00;;
23747;SDS011;12054;53.662;10.126;2022-07-05T04:00:18;3.72;;;2.50;;
23747;SDS011;12054;53.662;10.126;2022-07-05T04:02:43;5.75;;;2.63;;
23747;SDS011;12054;53.662;10.126;2022-07-05T04:05:09;4.55;;;2.58;;
23747;SDS011;12054;53.662;10.126;2022-07-05T04:07:34;5.85;;;2.70;;
23747;SDS011;12054;53.662;10.126;2022-07-05T04:10:21;5.15;;;2.65;;
23747;SDS011;12054;53.662;10.126;2022-07-05T04:12:47;5.38;;;2.63;;
23747;SDS011;12054;53.662;10.126;2022-07-05T04:15:13;3.95;;;2.70;;
23747;SDS011;12054;53.662;10.126;2022-07-05T04:17:46;3.15;;;2.40;;
23747;SDS011;12054;53.662;10.126;2022-07-05T04:20:12;3.22;;;2.45;;
23747;SDS011;12054;53.662;10.126;2022-07-05T04:22:38;4.75;;;2.35;;
23747;SDS011;12054;53.662;10.126;2022-07-05T04:25:03;4.22;;;3.03;;
23747;SDS011;12054;53.662;10.126;2022-07-05T04:27:41;4.18;;;2.58;;
23747;SDS011;12054;53.662;10.126;2022-07-05T04:30:18;6.03;;;2.53;;
23747;SDS011;12054;53.662;10.126;2022-07-05T04:32:45;3.30;;;2.97;;
23747;SDS011;12054;53.662;10.126;2022-07-05T04:35:11;4.53;;;2.67;;
23747;SDS011;12054;53.662;10.126;2022-07-05T04:37:38;7.15;;;3.00;;
23747;SDS011;12054;53.662;10.126;2022-07-05T04:40:04;5.05;;;2.83;;
23747;SDS011;12054;53.662;10.126;2022-07-05T04:42:31;6.10;;;2.75;;
23747;SDS011;12054;53.662;10.126;2022-07-05T04:44:57;4.90;;;3.03;;
23747;SDS011;12054;53.662;10.126;2022-07-05T04:47:22;6.57;;;2.80;;
23747;SDS011;12054;53.662;10.126;2022-07-05T04:49:48;4.03;;;2.88;;
23747;SDS011;12054;53.662;10.126;2022-07-05T04:52:13;6.60;;;2.80;;
23747;SDS011;12054;53.662;10.126;2022-07-05T04:54:39;4.50;;;2.55;;
23747;SDS011;12054;53.662;10.126;2022-07-05T04:57:05;5.75;;;2.78;;
23747;SDS011;12054;53.662;10.126;2022-07-05T04:59:30;4.30;;;2.78;;
23747;SDS011;12054;53.662;10.126;2022-07-05T05:01:56;4.55;;;2.58;;
23747;SDS011;12054;53.662;10.126;2022-07-05T05:04:21;5.55;;;2.90;;
23747;SDS011;12054;53.662;10.126;2022-07-05T05:06:47;5.90;;;2.67;;
23747;SDS011;12054;53.662;10.126;2022-07-05T05:09:12;5.47;;;2.67;;
23747;SDS011;12054;53.662;10.126;2022-07-05T05:11:38;3.78;;;2.42;;
23747;SDS011;12054;53.662;10.126;2022-07-05T05:14:03;4.85;;;2.50;;
23747;SDS011;12054;53.662;10.126;2022-07-05T05:16:29;3.47;;;2.50;;
23747;SDS011;12054;53.662;10.126;2022-07-05T05:18:54;3.92;;;2.30;;
23747;SDS011;12054;53.662;10.126;2022-07-05T05:21:20;4.57;;;2.45;;
23747;SDS011;12054;53.662;10.126;2022-07-05T05:23:46;3.53;;;2.20;;
23747;SDS011;12054;53.662;10.126;2022-07-05T05:26:12;5.43;;;2.45;;
23747;SDS011;12054;53.662;10.126;2022-07-05T05:28:37;3.97;;;2.17;;
23747;SDS011;12054;53.662;10.126;2022-07-05T05:31:04;3.38;;;2.20;;
23747;SDS011;12054;53.662;10.126;2022-07-05T05:33:29;3.30;;;2.10;;
23747;SDS011;12054;53.662;10.126;2022-07-05T05:35:57;3.33;;;2.03;;
23747;SDS011;12054;53.662;10.126;2022-07-05T05:38:23;5.22;;;2.03;;
23747;SDS011;12054;53.662;10.126;2022-07-05T05:40:48;6.88;;;3.00;;
23747;SDS011;12054;53.662;10.126;2022-07-05T05:43:14;2.63;;;1.77;;
23747;SDS011;12054;53.662;10.126;2022-07-05T05:45:39;4.60;;;1.70;;
23747;SDS011;12054;53.662;10.126;2022-07-05T05:48:05;6.25;;;2.15;;
23747;SDS011;12054;53.662;10.126;2022-07-05T05:50:35;2.10;;;1.60;;
23747;SDS011;12054;53.662;10.126;2022-07-05T05:53:03;5.38;;;1.75;;
23747;SDS011;12054;53.662;10.126;2022-07-05T05:55:29;4.53;;;2.05;;
23747;SDS011;12054;53.662;10.126;2022-07-05T05:57:56;1.90;;;1.35;;
23747;SDS011;12054;53.662;10.126;2022-07-05T06:00:27;1.88;;;1.50;;
23747;SDS011;12054;53.662;10.126;2022-07-05T06:02:52;4.50;;;1.60;;
23747;SDS011;12054;53.662;10.126;2022-07-05T06:05:18;2.42;;;1.50;;
23747;SDS011;12054;53.662;10.126;2022-07-05T06:07:47;3.88;;;1.65;;
23747;SDS011;12054;53.662;10.126;2022-07-05T06:10:18;2.30;;;1.70;;
23747;SDS011;12054;53.662;10.126;2022-07-05T06:12:49;3.45;;;1.63;;
23747;SDS011;12054;53.662;10.126;2022-07-05T06:15:16;3.83;;;1.60;;
23747;SDS011;12054;53.662;10.126;2022-07-05T06:17:42;2.50;;;1.38;;
23747;SDS011;12054;53.662;10.126;2022-07-05T06:20:08;2.78;;;1.50;;
23747;SDS011;12054;53.662;10.126;2022-07-05T06:22:38;2.97;;;1.40;;
23747;SDS011;12054;53.662;10.126;2022-07-05T06:25:04;2.00;;;1.33;;
23747;SDS011;12054;53.662;10.126;2022-07-05T06:27:30;3.10;;;1.60;;
23747;SDS011;12054;53.662;10.126;2022-07-05T06:29:56;5.05;;;2.33;;
23747;SDS011;12054;53.662;10.126;2022-07-05T06:32:22;5.25;;;1.60;;
23747;SDS011;12054;53.662;10.126;2022-07-05T06:34:48;4.68;;;1.70;;
23747;SDS011;12054;53.662;10.126;2022-07-05T06:37:14;2.17;;;1.50;;
23747;SDS011;12054;53.662;10.126;2022-07-05T06:39:39;3.13;;;1.17;;
23747;SDS011;12054;53.662;10.126;2022-07-05T06:42:05;1.63;;;1.40;;
23747;SDS011;12054;53.662;10.126;2022-07-05T06:44:30;1.77;;;1.20;;
23747;SDS011;12054;53.662;10.126;2022-07-05T06:46:56;2.65;;;1.60;;
23747;SDS011;12054;53.662;10.126;2022-07-05T06:49:22;4.10;;;1.55;;
23747;SDS011;12054;53.662;10.126;2022-07-05T06:51:47;3.25;;;1.48;;
23747;SDS011;12054;53.662;10.126;2022-07-05T06:54:13;3.72;;;1.40;;
23747;SDS011;12054;53.662;10.126;2022-07-05T06:56:38;4.60;;;1.30;;
23747;SDS011;12054;53.662;10.126;2022-07-05T06:59:04;2.67;;;1.40;;
23747;SDS011;12054;53.662;10.126;2022-07-05T07:01:29;5.80;;;1.70;;
23747;SDS011;12054;53.662;10.126;2022-07-05T07:03:55;3.20;;;1.50;;
23747;SDS011;12054;53.662;10.126;2022-07-05T07:06:20;5.47;;;1.60;;
23747;SDS011;12054;53.662;10.126;2022-07-05T07:08:47;3.13;;;1.27;;
23747;SDS011;12054;53.662;10.126;2022-07-05T07:11:31;3.78;;;1.67;;
23747;SDS011;12054;53.662;10.126;2022-07-05T07:13:57;1.40;;;1.10;;
23747;SDS011;12054;53.662;10.126;2022-07-05T07:16:22;4.95;;;1.50;;
23747;SDS011;12054;53.662;10.126;2022-07-05T07:18:48;4.38;;;1.40;;
23747;SDS011;12054;53.662;10.126;2022-07-05T07:21:14;1.95;;;1.30;;
23747;SDS011;12054;53.662;10.126;2022-07-05T07:23:40;4.35;;;1.52;;
23747;SDS011;12054;53.662;10.126;2022-07-05T07:26:10;2.90;;;1.30;;
23747;SDS011;12054;53.662;10.126;2022-07-05T07:28:38;3.22;;;1.33;;
23747;SDS011;12054;53.662;10.126;2022-07-05T07:31:05;1.75;;;1.05;;
23747;SDS011;12054;53.662;10.126;2022-07-05T07:33:34;2.65;;;1.30;;
23747;SDS011;12054;53.662;10.126;2022-07-05T07:36:13;2.28;;;1.00;;
23747;SDS011;12054;53.662;10.126;2022-07-05T07:38:39;2.17;;;1.10;;
23747;SDS011;12054;53.662;10.126;2022-07-05T07:41:04;1.52;;;0.98;;
23747;SDS011;12054;53.662;10.126;2022-07-05T07:43:42;1.52;;;0.90;;
23747;SDS011;12054;53.662;10.126;2022-07-05T07:46:10;6.88;;;1.05;;
23747;SDS011;12054;53.662;10.126;2022-07-05T07:48:36;2.83;;;0.93;;
23747;SDS011;12054;53.662;10.126;2022-07-05T07:51:04;2.60;;;0.82;;
23747;SDS011;12054;53.662;10.126;2022-07-05T07:53:33;4.30;;;1.65;;
23747;SDS011;12054;53.662;10.126;2022-07-05T07:55:58;2.65;;;0.90;;
23747;SDS011;12054;53.662;10.126;2022-07-05T07:58:24;2.90;;;1.10;;
23747;SDS011;12054;53.662;10.126;2022-07-05T08:00:49;2.17;;;0.70;;
23747;SDS011;12054;53.662;10.126;2022-07-05T08:03:15;2.55;;;1.30;;
23747;SDS011;12054;53.662;10.126;2022-07-05T08:05:40;3.33;;;0.90;;
23747;SDS011;12054;53.662;10.126;2022-07-05T08:08:06;2.70;;;0.75;;
23747;SDS011;12054;53.662;10.126;2022-07-05T08:10:32;1.45;;;0.80;;
23747;SDS011;12054;53.662;10.126;2022-07-05T08:12:58;2.40;;;0.75;;
23747;SDS011;12054;53.662;10.126;2022-07-05T08:15:24;3.55;;;0.73;;
23747;SDS011;12054;53.662;10.126;2022-07-05T08:17:49;1.58;;;0.50;;
23747;SDS011;12054;53.662;10.126;2022-07-05T08:23:20;0.82;;;0.50;;
23747;SDS011;12054;53.662;10.126;2022-07-05T08:25:46;1.00;;;0.50;;
23747;SDS011;12054;53.662;10.126;2022-07-05T08:28:14;1.15;;;0.60;;
23747;SDS011;12054;53.662;10.126;2022-07-05T08:30:40;0.80;;;0.50;;
23747;SDS011;12054;53.662;10.126;2022-07-05T08:33:05;1.17;;;0.63;;
23747;SDS011;12054;53.662;10.126;2022-07-05T08:35:31;3.10;;;0.70;;
23747;SDS011;12054;53.662;10.126;2022-07-05T08:37:57;0.55;;;0.40;;
23747;SDS011;12054;53.662;10.126;2022-07-05T08:40:24;1.65;;;0.65;;
23747;SDS011;12054;53.662;10.126;2022-07-05T08:42:52;1.83;;;0.75;;
23747;SDS011;12054;53.662;10.126;2022-07-05T08:45:19;1.40;;;0.50;;
23747;SDS011;12054;53.662;10.126;2022-07-05T08:47:45;0.90;;;0.60;;
23747;SDS011;12054;53.662;10.126;2022-07-05T08:50:12;4.22;;;0.50;;
23747;SDS011;12054;53.662;10.126;2022-07-05T08:52:40;5.07;;;0.77;;
23747;SDS011;12054;53.662;10.126;2022-07-05T08:55:06;0.75;;;0.50;;
23747;SDS011;12054;53.662;10.126;2022-07-05T08:57:32;0.50;;;0.47;;
23747;SDS011;12054;53.662;10.126;2022-07-05T08:59:58;1.27;;;0.50;;
23747;SDS011;12054;53.662;10.126;2022-07-05T09:02:23;0.55;;;0.45;;
23747;SDS011;12054;53.662;10.126;2022-07-05T09:04:50;2.15;;;0.70;;
23747;SDS011;12054;53.662;10.126;2022-07-05T09:07:20;1.15;;;0.47;;
23747;SDS011;12054;53.662;10.126;2022-07-05T09:09:48;0.98;;;0.82;;
23747;SDS011;12054;53.662;10.126;2022-07-05T09:12:16;1.20;;;0.70;;
23747;SDS011;12054;53.662;10.126;2022-07-05T09:14:41;1.42;;;0.70;;
23747;SDS011;12054;53.662;10.126;2022-07-05T09:17:18;0.93;;;0.60;;
23747;SDS011;12054;53.662;10.126;2022-07-05T09:19:50;2.33;;;0.70;;
23747;SDS011;12054;53.662;10.126;2022-07-05T09:22:42;2.03;;;0.90;;
23747;SDS011;12054;53.662;10.126;2022-07-05T09:25:37;0.98;;;0.73;;
23747;SDS011;12054;53.662;10.126;2022-07-05T09:28:03;2.22;;;0.82;;
23747;SDS011;12054;53.662;10.126;2022-07-05T09:30:37;0.95;;;0.52;;
23747;SDS011;12054;53.662;10.126;2022-07-05T09:33:23;0.75;;;0.50;;
23747;SDS011;12054;53.662;10.126;2022-07-05T09:35:52;0.90;;;0.60;;
23747;SDS011;12054;53.662;10.126;2022-07-05T09:38:22;0.70;;;0.52;;
23747;SDS011;12054;53.662;10.126;2022-07-05T09:40:52;1.10;;;0.70;;
23747;SDS011;12054;53.662;10.126;2022-07-05T09:43:23;0.90;;;0.60;;
23747;SDS011;12054;53.662;10.126;2022-07-05T09:48:22;1.00;;;0.75;;
23747;SDS011;12054;53.662;10.126;2022-07-05T09:50:49;1.25;;;0.50;;
23747;SDS011;12054;53.662;10.126;2022-07-05T09:53:16;3.20;;;0.80;;
23747;SDS011;12054;53.662;10.126;2022-07-05T09:58:32;1.27;;;0.60;;
23747;SDS011;12054;53.662;10.126;2022-07-05T10:00:58;3.38;;;0.70;;
23747;SDS011;12054;53.662;10.126;2022-07-05T10:03:24;2.50;;;0.75;;
23747;SDS011;12054;53.662;10.126;2022-07-05T10:05:49;2.83;;;0.60;;
23747;SDS011;12054;53.662;10.126;2022-07-05T10:08:18;0.75;;;0.60;;
23747;SDS011;12054;53.662;10.126;2022-07-05T10:10:45;0.85;;;0.47;;
23747;SDS011;12054;53.662;10.126;2022-07-05T10:13:12;1.50;;;0.73;;
23747;SDS011;12054;53.662;10.126;2022-07-05T10:15:39;2.15;;;0.50;;
23747;SDS011;12054;53.662;10.126;2022-07-05T10:18:06;1.58;;;0.60;;
23747;SDS011;12054;53.662;10.126;2022-07-05T10:20:41;0.90;;;0.40;;
23747;SDS011;12054;53.662;10.126;2022-07-05T10:25:39;1.80;;;0.73;;
23747;SDS011;12054;53.662;10.126;2022-07-05T10:28:06;0.55;;;0.40;;
23747;SDS011;12054;53.662;10.126;2022-07-05T10:30:33;2.60;;;0.60;;
23747;SDS011;12054;53.662;10.126;2022-07-05T10:33:01;1.63;;;0.75;;
23747;SDS011;12054;53.662;10.126;2022-07-05T10:35:28;0.70;;;0.40;;
23747;SDS011;12054;53.662;10.126;2022-07-05T10:38:03;1.58;;;0.70;;
23747;SDS011;12054;53.662;10.126;2022-07-05T10:40:30;0.63;;;0.50;;
23747;SDS011;12054;53.662;10.126;2022-07-05T10:43:01;0.40;;;0.40;;
23747;SDS011;12054;53.662;10.126;2022-07-05T10:45:32;0.70;;;0.40;;
23747;SDS011;12054;53.662;10.126;2022-07-05T10:50:51;0.40;;;0.40;;
23747;SDS011;12054;53.662;10.126;2022-07-05T10:53:24;0.47;;;0.30;;
23747;SDS011;12054;53.662;10.126;2022-07-05T10:58:32;0.95;;;0.40;;
23747;SDS011;12054;53.662;10.126;2022-07-05T11:06:22;0.70;;;0.47;;
23747;SDS011;12054;53.662;10.126;2022-07-05T11:14:00;1.77;;;0.82;;
23747;SDS011;12054;53.662;10.126;2022-07-05T11:16:28;2.63;;;0.50;;
23747;SDS011;12054;53.662;10.126;2022-07-05T11:19:10;1.88;;;0.50;;
23747;SDS011;12054;53.662;10.126;2022-07-05T11:21:38;0.40;;;0.30;;
23747;SDS011;12054;53.662;10.126;2022-07-05T11:26:57;1.30;;;0.43;;
23747;SDS011;12054;53.662;10.126;2022-07-05T11:32:13;1.17;;;0.38;;
23747;SDS011;12054;53.662;10.126;2022-07-05T11:34:44;2.67;;;0.60;;
23747;SDS011;12054;53.662;10.126;2022-07-05T11:42:57;0.75;;;0.50;;
23747;SDS011;12054;53.662;10.126;2022-07-05T11:45:22;2.55;;;0.50;;
23747;SDS011;12054;53.662;10.126;2022-07-05T11:47:49;0.63;;;0.30;;
23747;SDS011;12054;53.662;10.126;2022-07-05T11:50:24;3.08;;;0.40;;
23747;SDS011;12054;53.662;10.126;2022-07-05T11:52:54;1.08;;;0.30;;
23747;SDS011;12054;53.662;10.126;2022-07-05T11:55:19;1.33;;;0.47;;
23747;SDS011;12054;53.662;10.126;2022-07-05T11:57:48;1.98;;;0.50;;
23747;SDS011;12054;53.662;10.126;2022-07-05T12:00:25;0.73;;;0.60;;
23747;SDS011;12054;53.662;10.126;2022-07-05T12:02:54;0.85;;;0.40;;
23747;SDS011;12054;53.662;10.126;2022-07-05T12:05:19;2.22;;;0.70;;
23747;SDS011;12054;53.662;10.126;2022-07-05T12:07:49;2.67;;;0.68;;
23747;SDS011;12054;53.662;10.126;2022-07-05T12:10:15;1.38;;;0.50;;
23747;SDS011;12054;53.662;10.126;2022-07-05T12:13:06;1.48;;;0.63;;
23747;SDS011;12054;53.662;10.126;2022-07-05T12:15:33;2.42;;;0.60;;
23747;SDS011;12054;53.662;10.126;2022-07-05T12:18:00;1.55;;;0.55;;
23747;SDS011;12054;53.662;10.126;2022-07-05T12:20:31;1.35;;;0.80;;
23747;SDS011;12054;53.662;10.126;2022-07-05T12:23:01;1.45;;;0.45;;
23747;SDS011;12054;53.662;10.126;2022-07-05T12:25:28;1.35;;;0.57;;
23747;SDS011;12054;53.662;10.126;2022-07-05T12:27:56;2.38;;;0.60;;
23747;SDS011;12054;53.662;10.126;2022-07-05T12:30:23;1.42;;;0.63;;
23747;SDS011;12054;53.662;10.126;2022-07-05T12:32:56;1.38;;;0.60;;
23747;SDS011;12054;53.662;10.126;2022-07-05T12:38:04;1.35;;;0.70;;
23747;SDS011;12054;53.662;10.126;2022-07-05T12:40:40;1.88;;;0.60;;
23747;SDS011;12054;53.662;10.126;2022-07-05T12:43:08;1.35;;;0.57;;
23747;SDS011;12054;53.662;10.126;2022-07-05T12:45:40;1.42;;;0.60;;
23747;SDS011;12054;53.662;10.126;2022-07-05T12:48:07;1.35;;;0.60;;
23747;SDS011;12054;53.662;10.126;2022-07-05T12:50:47;1.73;;;0.60;;
23747;SDS011;12054;53.662;10.126;2022-07-05T12:53:13;1.13;;;0.60;;
23747;SDS011;12054;53.662;10.126;2022-07-05T12:56:02;3.00;;;0.60;;
23747;SDS011;12054;53.662;10.126;2022-07-05T12:58:54;1.75;;;0.70;;
23747;SDS011;12054;53.662;10.126;2022-07-05T13:01:34;0.88;;;0.60;;
23747;SDS011;12054;53.662;10.126;2022-07-05T13:04:11;2.13;;;0.80;;
23747;SDS011;12054;53.662;10.126;2022-07-05T13:06:41;5.82;;;0.70;;
23747;SDS011;12054;53.662;10.126;2022-07-05T13:09:10;0.50;;;0.50;;
23747;SDS011;12054;53.662;10.126;2022-07-05T13:11:36;1.40;;;0.60;;
23747;SDS011;12054;53.662;10.126;2022-07-05T13:14:02;1.20;;;0.50;;
23747;SDS011;12054;53.662;10.126;2022-07-05T13:16:27;1.17;;;0.63;;
23747;SDS011;12054;53.662;10.126;2022-07-05T13:18:53;2.53;;;0.80;;
23747;SDS011;12054;53.662;10.126;2022-07-05T13:21:19;0.93;;;0.45;;
23747;SDS011;12054;53.662;10.126;2022-07-05T13:23:44;1.17;;;0.60;;
23747;SDS011;12054;53.662;10.126;2022-07-05T13:26:10;1.42;;;0.60;;
23747;SDS011;12054;53.662;10.126;2022-07-05T13:28:35;1.13;;;0.57;;
23747;SDS011;12054;53.662;10.126;2022-07-05T13:31:01;1.60;;;0.80;;
23747;SDS011;12054;53.662;10.126;2022-07-05T13:33:26;2.22;;;0.70;;
23747;SDS011;12054;53.662;10.126;2022-07-05T13:35:52;1.10;;;0.80;;
23747;SDS011;12054;53.662;10.126;2022-07-05T13:38:18;1.20;;;0.60;;
23747;SDS011;12054;53.662;10.126;2022-07-05T13:40:44;0.88;;;0.70;;
23747;SDS011;12054;53.662;10.126;2022-07-05T13:43:09;1.30;;;0.60;;
23747;SDS011;12054;53.662;10.126;2022-07-05T13:45:35;2.08;;;0.70;;
23747;SDS011;12054;53.662;10.126;2022-07-05T13:48:00;1.10;;;0.68;;
23747;SDS011;12054;53.662;10.126;2022-07-05T13:50:26;2.47;;;0.60;;
23747;SDS011;12054;53.662;10.126;2022-07-05T13:52:58;1.05;;;0.55;;
23747;SDS011;12054;53.662;10.126;2022-07-05T13:55:24;2.10;;;0.88;;
23747;SDS011;12054;53.662;10.126;2022-07-05T13:57:50;0.95;;;0.52;;
23747;SDS011;12054;53.662;10.126;2022-07-05T14:00:16;0.85;;;0.70;;
23747;SDS011;12054;53.662;10.126;2022-07-05T14:02:42;1.95;;;0.70;;
23747;SDS011;12054;53.662;10.126;2022-07-05T14:05:09;1.20;;;0.63;;
23747;SDS011;12054;53.662;10.126;2022-07-05T14:07:35;2.10;;;0.70;;
23747;SDS011;12054;53.662;10.126;2022-07-05T14:10:01;0.98;;;0.60;;
23747;SDS011;12054;53.662;10.126;2022-07-05T14:12:27;1.33;;;0.55;;
23747;SDS011;12054;53.662;10.126;2022-07-05T14:14:52;1.85;;;0.80;;
23747;SDS011;12054;53.662;10.126;2022-07-05T14:17:18;1.15;;;0.60;;
23747;SDS011;12054;53.662;10.126;2022-07-05T14:19:44;3.25;;;0.65;;
23747;SDS011;12054;53.662;10.126;2022-07-05T14:22:09;1.70;;;0.55;;
23747;SDS011;12054;53.662;10.126;2022-07-05T14:24:35;3.33;;;0.98;;
23747;SDS011;12054;53.662;10.126;2022-07-05T14:27:00;1.55;;;0.60;;
23747;SDS011;12054;53.662;10.126;2022-07-05T14:29:26;0.95;;;0.70;;
23747;SDS011;12054;53.662;10.126;2022-07-05T14:31:51;1.13;;;0.65;;
23747;SDS011;12054;53.662;10.126;2022-07-05T14:34:17;1.33;;;0.65;;
23747;SDS011;12054;53.662;10.126;2022-07-05T14:36:43;3.33;;;0.88;;
23747;SDS011;12054;53.662;10.126;2022-07-05T14:39:08;2.35;;;1.02;;
23747;SDS011;12054;53.662;10.126;2022-07-05T14:41:34;2.15;;;0.60;;
23747;SDS011;12054;53.662;10.126;2022-07-05T14:43:59;1.38;;;0.60;;
23747;SDS011;12054;53.662;10.126;2022-07-05T14:46:25;3.13;;;0.60;;
23747;SDS011;12054;53.662;10.126;2022-07-05T14:48:50;2.50;;;0.63;;
23747;SDS011;12054;53.662;10.126;2022-07-05T14:51:16;2.38;;;0.70;;
23747;SDS011;12054;53.662;10.126;2022-07-05T14:53:42;2.22;;;0.80;;
23747;SDS011;12054;53.662;10.126;2022-07-05T14:56:10;1.80;;;0.70;;
23747;SDS011;12054;53.662;10.126;2022-07-05T14:58:35;2.38;;;0.70;;
23747;SDS011;12054;53.662;10.126;2022-07-05T15:01:01;2.03;;;0.57;;
23747;SDS011;12054;53.662;10.126;2022-07-05T15:03:26;2.58;;;0.60;;
23747;SDS011;12054;53.662;10.126;2022-07-05T15:05:52;0.90;;;0.50;;
23747;SDS011;12054;53.662;10.126;2022-07-05T15:08:19;2.75;;;0.60;;
23747;SDS011;12054;53.662;10.126;2022-07-05T15:10:46;1.98;;;0.70;;
23747;SDS011;12054;53.662;10.126;2022-07-05T15:13:13;1.17;;;0.63;;
23747;SDS011;12054;53.662;10.126;2022-07-05T15:15:39;3.42;;;0.63;;